Time;durP1;ratioP1;P1;durP2;ratioP2;P2;SDS_P1;SDS_P2;PMS_P1;PMS_P2;Temp;Humidity;BMP_temperature;BMP_pressure;BME280_temperature;BME280_humidity;BME280_pressure;Samples;Min_cycle;Max_cycle;Signal;HPM_P1;HPM_P2
2023/06/14 00:01:55;;;;;;;4.18;1.98;;;26.30;34.80;;;;;;5097105;28;20024;-76
2023/06/14 00:04:21;;;;;;;2.85;1.83;;;26.30;34.20;;;;;;5078825;28;20380;-75
2023/06/14 00:06:48;;;;;;;3.75;1.60;;;26.20;34.20;;;;;;5095753;28;20108;-76
2023/06/14 00:09:14;;;;;;;2.63;1.80;;;26.20;34.20;;;;;;5062339;28;20105;-77
2023/06/14 00:11:41;;;;;;;2.25;1.73;;;26.20;34.20;;;;;;5096352;28;20453;-76
2023/06/14 00:14:06;;;;;;;2.28;1.73;;;26.10;34.20;;;;;;5078238;28;20492;-77
2023/06/14 00:16:35;;;;;;;2.42;1.60;;;26.10;34.20;;;;;;5095404;28;20028;-76
2023/06/14 00:19:05;;;;;;;3.22;2.13;;;26.00;34.20;;;;;;5095769;28;20066;-76
2023/06/14 00:21:31;;;;;;;2.30;1.70;;;26.00;34.30;;;;;;5096989;28;20028;-76
2023/06/14 00:23:58;;;;;;;2.40;1.60;;;26.00;34.40;;;;;;5096198;28;20067;-75
2023/06/14 00:26:26;;;;;;;2.17;1.60;;;26.00;34.30;;;;;;5096599;28;20089;-76
2023/06/14 00:28:52;;;;;;;1.92;1.58;;;25.90;34.30;;;;;;5096741;28;20047;-76
2023/06/14 00:31:18;;;;;;;2.60;1.60;;;25.90;34.30;;;;;;5078216;28;20032;-76
2023/06/14 00:33:44;;;;;;;2.10;1.60;;;25.90;34.30;;;;;;5078471;28;20093;-75
2023/06/14 00:36:12;;;;;;;2.80;1.70;;;25.80;34.30;;;;;;5095811;28;20032;-76
2023/06/14 00:38:37;;;;;;;1.85;1.67;;;25.80;34.40;;;;;;5096116;28;20039;-78
2023/06/14 00:41:03;;;;;;;2.35;1.60;;;25.70;34.30;;;;;;5095161;28;20034;-77
2023/06/14 00:43:29;;;;;;;3.38;1.60;;;25.70;34.40;;;;;;5096309;28;20440;-77
2023/06/14 00:45:55;;;;;;;2.33;1.80;;;25.60;34.30;;;;;;5077481;28;20453;-76
2023/06/14 00:48:21;;;;;;;2.65;1.77;;;25.60;34.40;;;;;;5077622;28;20453;-77
2023/06/14 00:50:49;;;;;;;4.82;2.20;;;25.60;34.50;;;;;;5076921;28;20039;-76
2023/06/14 00:53:17;;;;;;;2.55;1.70;;;25.60;34.50;;;;;;5093394;28;20107;-76
2023/06/14 00:55:44;;;;;;;2.85;1.58;;;25.50;34.40;;;;;;5076871;28;20032;-76
2023/06/14 00:58:11;;;;;;;2.58;1.75;;;25.50;34.50;;;;;;5094595;28;20043;-76
2023/06/14 01:00:36;;;;;;;2.67;1.90;;;25.50;34.50;;;;;;5093793;28;20028;-76
2023/06/14 01:03:03;;;;;;;1.75;1.42;;;25.40;34.50;;;;;;5076658;28;20036;-76
2023/06/14 01:05:30;;;;;;;1.98;1.60;;;25.40;34.60;;;;;;5093718;28;20031;-76
2023/06/14 01:08:14;;;;;;;2.53;1.70;;;25.40;34.60;;;;;;5093508;28;20044;-75
2023/06/14 01:11:08;;;;;;;2.55;1.83;;;25.30;34.60;;;;;;5093635;28;20032;-76
2023/06/14 01:13:37;;;;;;;3.20;2.38;;;25.30;34.60;;;;;;5094580;28;20036;-77
2023/06/14 01:16:04;;;;;;;2.72;1.50;;;25.20;34.60;;;;;;5094334;28;20102;-77
2023/06/14 01:18:30;;;;;;;2.13;1.60;;;25.20;34.60;;;;;;5093848;28;20036;-77
2023/06/14 01:20:56;;;;;;;2.60;1.75;;;25.20;34.70;;;;;;5077160;28;20028;-77
2023/06/14 01:23:25;;;;;;;3.33;1.75;;;25.10;34.70;;;;;;5060287;28;20028;-76
2023/06/14 01:25:55;;;;;;;2.20;1.60;;;25.10;34.80;;;;;;5060917;28;20130;-77
2023/06/14 01:28:22;;;;;;;2.47;1.50;;;25.10;34.80;;;;;;5093787;28;20101;-76
2023/06/14 01:30:52;;;;;;;2.10;1.45;;;25.10;34.80;;;;;;5093326;28;20028;-76
2023/06/14 01:33:28;;;;;;;1.95;1.50;;;25.00;34.80;;;;;;5093795;28;20398;-77
2023/06/14 01:35:57;;;;;;;2.80;1.65;;;24.90;34.80;;;;;;5076945;28;20085;-76
2023/06/14 01:38:25;;;;;;;2.15;1.70;;;24.90;34.90;;;;;;5076895;28;20024;-76
2023/06/14 01:40:53;;;;;;;2.08;1.73;;;24.90;35.00;;;;;;5076070;28;20032;-76
2023/06/14 01:43:20;;;;;;;2.30;1.50;;;24.90;35.00;;;;;;5076198;28;20117;-78
2023/06/14 01:48:05;;;;;;;1.80;1.50;;;24.80;34.90;;;;;;5073062;27;20373;-75
2023/06/14 01:50:31;;;;;;;2.25;1.60;;;24.80;35.00;;;;;;5068036;28;20056;-75
2023/06/14 01:52:57;;;;;;;2.08;1.70;;;24.70;35.00;;;;;;5032071;28;20131;-77
2023/06/14 01:55:27;;;;;;;2.55;1.60;;;24.70;35.10;;;;;;5076701;28;20029;-77
2023/06/14 01:57:54;;;;;;;2.50;1.77;;;24.70;35.20;;;;;;5068479;28;20645;-77
2023/06/14 02:00:21;;;;;;;2.08;1.58;;;24.60;35.10;;;;;;5048375;28;20121;-77
2023/06/14 02:02:48;;;;;;;2.72;1.70;;;24.60;35.20;;;;;;5066181;28;20030;-76
2023/06/14 02:05:18;;;;;;;2.13;1.52;;;24.60;35.20;;;;;;5066430;28;20025;-76
2023/06/14 02:07:45;;;;;;;2.35;1.58;;;24.60;35.30;;;;;;5062886;28;20039;-77
2023/06/14 02:10:11;;;;;;;3.25;1.65;;;24.50;35.40;;;;;;5065478;28;20485;-76
2023/06/14 02:12:37;;;;;;;1.98;1.55;;;24.50;35.40;;;;;;5051525;28;20036;-76
2023/06/14 02:15:03;;;;;;;2.42;1.50;;;24.40;35.40;;;;;;5061106;28;20025;-76
2023/06/14 02:17:29;;;;;;;1.85;1.60;;;24.40;35.40;;;;;;5044135;28;20036;-76
2023/06/14 02:19:57;;;;;;;2.08;1.70;;;24.40;35.50;;;;;;5060084;28;20418;-76
2023/06/14 02:22:25;;;;;;;1.85;1.30;;;24.30;35.50;;;;;;5064182;28;20017;-76
2023/06/14 02:24:51;;;;;;;2.58;1.63;;;24.30;35.50;;;;;;5051704;28;20028;-76
2023/06/14 02:27:17;;;;;;;2.78;1.58;;;24.30;35.60;;;;;;5080769;28;20048;-76
2023/06/14 02:29:43;;;;;;;2.38;1.67;;;24.30;35.60;;;;;;5060959;28;20500;-75
2023/06/14 02:32:09;;;;;;;2.42;1.58;;;24.20;35.90;;;;;;5064057;28;20029;-75
2023/06/14 02:34:35;;;;;;;1.90;1.67;;;24.20;35.60;;;;;;5061482;28;20028;-76
2023/06/14 02:37:05;;;;;;;1.85;1.52;;;24.20;35.70;;;;;;5065853;28;20044;-77
2023/06/14 02:39:30;;;;;;;2.03;1.60;;;24.10;35.70;;;;;;5062873;28;20091;-76
2023/06/14 02:41:56;;;;;;;2.75;1.67;;;24.10;35.80;;;;;;5064048;28;20133;-76
2023/06/14 02:44:27;;;;;;;1.80;1.50;;;24.00;35.80;;;;;;5056576;28;20060;-76
2023/06/14 02:46:55;;;;;;;1.77;1.40;;;24.00;35.90;;;;;;5045159;28;20459;-77
2023/06/14 02:49:22;;;;;;;2.53;1.50;;;24.00;35.90;;;;;;5081058;28;20171;-77
2023/06/14 02:51:48;;;;;;;2.05;1.35;;;24.00;35.90;;;;;;5064106;28;20120;-77
2023/06/14 02:54:14;;;;;;;2.80;1.73;;;23.90;35.90;;;;;;5047760;28;20129;-77
2023/06/14 02:56:40;;;;;;;1.85;1.60;;;23.90;35.90;;;;;;5081326;28;20079;-76
2023/06/14 02:59:08;;;;;;;2.15;1.27;;;23.90;36.00;;;;;;5063636;28;20036;-77
2023/06/14 03:01:35;;;;;;;1.67;1.33;;;23.90;36.10;;;;;;5017295;28;20182;-76
2023/06/14 03:04:04;;;;;;;2.53;1.40;;;23.80;36.00;;;;;;5050110;28;20428;-77
2023/06/14 03:06:33;;;;;;;2.00;1.50;;;23.80;36.10;;;;;;5052211;28;20032;-77
2023/06/14 03:09:10;;;;;;;1.85;1.40;;;23.80;36.20;;;;;;5043242;28;20048;-77
2023/06/14 03:11:38;;;;;;;1.98;1.65;;;23.70;36.20;;;;;;5047678;28;20029;-78
2023/06/14 03:14:04;;;;;;;1.98;1.40;;;23.70;36.30;;;;;;5031981;28;20116;-77
2023/06/14 03:16:31;;;;;;;1.70;1.60;;;23.70;36.30;;;;;;5047677;28;20033;-76
2023/06/14 03:18:58;;;;;;;3.08;1.50;;;23.60;36.30;;;;;;5051184;28;20049;-76
2023/06/14 03:21:26;;;;;;;1.55;1.33;;;23.60;36.40;;;;;;5033101;28;20029;-78
2023/06/14 03:23:55;;;;;;;2.33;1.55;;;23.60;36.40;;;;;;5027931;28;20478;-76
2023/06/14 03:26:22;;;;;;;1.95;1.65;;;23.60;36.40;;;;;;5040395;28;20056;-76
2023/06/14 03:28:50;;;;;;;1.95;1.50;;;23.50;36.40;;;;;;5046894;28;20043;-76
2023/06/14 03:31:18;;;;;;;2.42;1.73;;;23.50;36.40;;;;;;5016890;28;20044;-76
2023/06/14 03:33:45;;;;;;;2.88;1.60;;;23.50;36.60;;;;;;5019403;28;20039;-76
2023/06/14 03:36:11;;;;;;;1.58;1.40;;;23.50;36.60;;;;;;5049321;28;20086;-76
2023/06/14 03:38:37;;;;;;;1.60;1.50;;;23.40;36.60;;;;;;5039073;28;20425;-76
2023/06/14 03:41:04;;;;;;;2.17;1.40;;;23.40;36.60;;;;;;5044014;28;20079;-76
2023/06/14 03:43:31;;;;;;;2.38;1.50;;;23.30;36.60;;;;;;5012727;28;20032;-77
2023/06/14 03:45:57;;;;;;;1.65;1.38;;;23.30;36.80;;;;;;5027945;28;20393;-75
2023/06/14 03:48:25;;;;;;;2.17;1.45;;;23.30;36.80;;;;;;5045952;28;20045;-77
2023/06/14 03:50:51;;;;;;;2.03;1.58;;;23.30;36.80;;;;;;5035019;28;20044;-77
2023/06/14 03:53:17;;;;;;;1.85;1.50;;;23.30;36.80;;;;;;5034910;28;20086;-77
2023/06/14 03:55:48;;;;;;;2.50;1.42;;;23.20;36.80;;;;;;5029603;28;20385;-76
2023/06/14 03:58:15;;;;;;;2.20;1.60;;;23.20;36.80;;;;;;5032906;28;20043;-76
2023/06/14 04:00:41;;;;;;;1.83;1.40;;;23.20;36.90;;;;;;5046562;28;20037;-76
2023/06/14 04:03:07;;;;;;;3.90;1.50;;;23.10;36.80;;;;;;5053123;28;20021;-76
2023/06/14 04:05:33;;;;;;;2.08;1.33;;;23.10;36.90;;;;;;5039299;28;20033;-77
2023/06/14 04:08:00;;;;;;;1.52;1.33;;;23.10;37.00;;;;;;5049816;28;20060;-76
2023/06/14 04:10:26;;;;;;;1.80;1.50;;;23.00;37.00;;;;;;5049712;28;20029;-75
2023/06/14 04:12:52;;;;;;;1.63;1.20;;;23.00;37.10;;;;;;5026549;28;20465;-76
2023/06/14 04:15:18;;;;;;;2.08;1.63;;;23.00;37.10;;;;;;5059306;28;20527;-78
2023/06/14 04:17:44;;;;;;;1.83;1.50;;;23.00;37.30;;;;;;5048228;28;20035;-76
2023/06/14 04:20:10;;;;;;;5.15;1.83;;;22.90;37.10;;;;;;5046592;28;20081;-77
2023/06/14 04:22:37;;;;;;;1.95;1.50;;;22.90;37.20;;;;;;5016626;28;20037;-76
2023/06/14 04:25:06;;;;;;;1.80;1.50;;;22.90;37.20;;;;;;5019643;28;20078;-76
2023/06/14 04:27:36;;;;;;;2.33;1.70;;;22.90;37.20;;;;;;5035213;28;20033;-77
2023/06/14 04:30:03;;;;;;;2.30;1.67;;;22.90;37.30;;;;;;5048116;28;20048;-77
2023/06/14 04:32:38;;;;;;;1.77;1.27;;;22.80;37.30;;;;;;5008843;28;20029;-76
2023/06/14 04:35:07;;;;;;;2.20;1.58;;;22.80;37.20;;;;;;5046707;28;20037;-78
2023/06/14 04:37:43;;;;;;;2.75;1.65;;;22.80;37.30;;;;;;5044802;28;20029;-77
2023/06/14 04:40:10;;;;;;;2.45;1.42;;;22.80;37.40;;;;;;5033001;28;20037;-75
2023/06/14 04:42:37;;;;;;;2.30;1.40;;;22.70;37.40;;;;;;5049220;28;20017;-76
2023/06/14 04:45:06;;;;;;;2.03;1.60;;;22.70;37.50;;;;;;5061462;28;20041;-76
2023/06/14 04:47:34;;;;;;;2.35;1.50;;;22.70;37.50;;;;;;5049158;28;20521;-76
2023/06/14 04:50:00;;;;;;;2.40;1.60;;;22.70;37.60;;;;;;5045902;28;20036;-76
2023/06/14 04:52:30;;;;;;;2.10;1.60;;;22.60;37.60;;;;;;5035404;28;20048;-76
2023/06/14 04:54:56;;;;;;;2.10;1.50;;;22.60;37.60;;;;;;5048370;28;20378;-76
2023/06/14 04:57:25;;;;;;;1.85;1.45;;;22.60;37.70;;;;;;5048893;28;20062;-77
2023/06/14 04:59:57;;;;;;;2.17;1.58;;;22.60;37.70;;;;;;5034564;28;20043;-78
2023/06/14 05:02:25;;;;;;;1.45;1.35;;;22.60;37.80;;;;;;5031416;28;20378;-78
2023/06/14 05:04:52;;;;;;;1.58;1.40;;;22.60;37.90;;;;;;5048544;28;20485;-78
2023/06/14 05:07:18;;;;;;;2.45;1.50;;;22.60;37.90;;;;;;5046473;28;20037;-78
2023/06/14 05:09:44;;;;;;;1.45;1.27;;;22.50;37.80;;;;;;5065461;28;20124;-77
2023/06/14 05:12:11;;;;;;;1.70;1.33;;;22.50;37.90;;;;;;5049773;28;20029;-76
2023/06/14 05:14:37;;;;;;;2.55;1.60;;;22.50;37.90;;;;;;5071959;28;20370;-78
2023/06/14 05:17:04;;;;;;;1.80;1.30;;;22.50;38.00;;;;;;5047886;28;20272;-80
2023/06/14 05:19:30;;;;;;;2.20;1.45;;;22.50;38.00;;;;;;5051033;28;20048;-78
2023/06/14 05:21:56;;;;;;;3.63;1.58;;;22.50;38.00;;;;;;5048268;28;20067;-78
2023/06/14 05:24:22;;;;;;;1.83;1.60;;;22.50;38.10;;;;;;5045549;28;20037;-77
2023/06/14 05:26:48;;;;;;;2.33;1.30;;;22.50;38.10;;;;;;5064030;28;20044;-75
2023/06/14 05:29:14;;;;;;;2.85;1.75;;;22.50;38.20;;;;;;5039475;28;20075;-76
2023/06/14 05:31:40;;;;;;;1.77;1.45;;;22.40;38.20;;;;;;5048498;28;20029;-76
2023/06/14 05:34:06;;;;;;;1.92;1.50;;;22.40;38.20;;;;;;5049048;28;20025;-77
2023/06/14 05:36:32;;;;;;;1.83;1.40;;;22.40;38.20;;;;;;5029777;28;20039;-75
2023/06/14 05:38:59;;;;;;;1.95;1.75;;;22.40;38.30;;;;;;5031970;28;20029;-76
2023/06/14 05:41:28;;;;;;;1.70;1.33;;;22.40;38.40;;;;;;5050256;28;20060;-75
2023/06/14 05:43:55;;;;;;;1.52;1.33;;;22.40;38.40;;;;;;5032018;28;20037;-79
2023/06/14 05:46:24;;;;;;;2.33;1.73;;;22.40;38.50;;;;;;5029798;28;20036;-78
2023/06/14 05:48:54;;;;;;;2.20;1.50;;;22.40;38.40;;;;;;5048459;28;20048;-76
2023/06/14 05:51:20;;;;;;;2.15;1.50;;;22.40;38.50;;;;;;5049319;28;20013;-76
2023/06/14 05:53:50;;;;;;;2.50;1.77;;;22.40;38.60;;;;;;5049784;28;20025;-77
2023/06/14 05:56:17;;;;;;;1.42;1.20;;;22.40;38.60;;;;;;5048360;28;20033;-76
2023/06/14 05:58:44;;;;;;;2.97;1.67;;;22.40;38.60;;;;;;5027731;28;20142;-78
2023/06/14 06:01:10;;;;;;;1.55;1.45;;;22.40;38.70;;;;;;5064621;28;20025;-78
2023/06/14 06:03:36;;;;;;;1.88;1.42;;;22.40;38.70;;;;;;5048299;28;20037;-78
2023/06/14 06:06:03;;;;;;;2.13;1.58;;;22.40;38.70;;;;;;5024712;28;20021;-77
2023/06/14 06:08:29;;;;;;;2.03;1.48;;;22.40;38.80;;;;;;5081099;28;20029;-78
2023/06/14 06:10:56;;;;;;;2.10;1.55;;;22.40;38.90;;;;;;5048320;28;20037;-79
2023/06/14 06:13:22;;;;;;;2.00;1.58;;;22.40;39.00;;;;;;5048287;28;20119;-77
2023/06/14 06:15:48;;;;;;;2.38;1.52;;;22.40;39.00;;;;;;5027795;28;20112;-77
2023/06/14 06:18:13;;;;;;;2.78;1.70;;;22.40;39.00;;;;;;5063067;28;20465;-78
2023/06/14 06:20:39;;;;;;;1.50;1.27;;;22.40;39.10;;;;;;5048296;28;20033;-77
2023/06/14 06:23:05;;;;;;;2.00;1.50;;;22.40;39.10;;;;;;5031064;28;20025;-78
2023/06/14 06:25:31;;;;;;;1.92;1.63;;;22.40;39.10;;;;;;5046447;28;20028;-78
2023/06/14 06:27:57;;;;;;;1.90;1.50;;;22.40;39.20;;;;;;5048695;28;20072;-78
2023/06/14 06:30:24;;;;;;;1.90;1.45;;;22.40;39.20;;;;;;5062374;28;20386;-78
2023/06/14 06:32:51;;;;;;;2.33;1.58;;;22.30;39.20;;;;;;5049015;28;20036;-78
2023/06/14 06:35:17;;;;;;;2.05;1.63;;;22.40;39.30;;;;;;5051747;28;20106;-78
2023/06/14 06:37:43;;;;;;;1.92;1.50;;;22.30;39.30;;;;;;5052215;28;20060;-78
2023/06/14 06:40:10;;;;;;;1.60;1.40;;;22.40;39.30;;;;;;5051466;28;20024;-78
2023/06/14 06:42:36;;;;;;;2.55;1.52;;;22.40;39.40;;;;;;5051555;28;20390;-78
2023/06/14 06:45:05;;;;;;;1.88;1.60;;;22.40;39.40;;;;;;5051975;28;20017;-78
2023/06/14 06:47:31;;;;;;;1.50;1.40;;;22.40;39.50;;;;;;5051511;28;20410;-76
2023/06/14 06:49:56;;;;;;;1.80;1.40;;;22.40;39.50;;;;;;5053474;28;20028;-76
2023/06/14 06:52:22;;;;;;;2.03;1.42;;;22.40;39.50;;;;;;5027455;28;20040;-75
2023/06/14 06:54:49;;;;;;;1.70;1.58;;;22.40;39.60;;;;;;5051116;28;20033;-76
2023/06/14 06:57:15;;;;;;;2.58;1.75;;;22.40;39.60;;;;;;5067573;28;20033;-76
2023/06/14 06:59:40;;;;;;;2.35;1.73;;;22.40;39.60;;;;;;5051348;28;20537;-77
2023/06/14 07:02:06;;;;;;;2.03;1.55;;;22.40;39.60;;;;;;5051736;28;20029;-76
2023/06/14 07:04:32;;;;;;;2.00;1.60;;;22.40;39.70;;;;;;5064904;28;20128;-77
2023/06/14 07:06:58;;;;;;;1.63;1.38;;;22.40;39.70;;;;;;5034360;28;20366;-78
2023/06/14 07:09:24;;;;;;;2.72;1.60;;;22.50;39.80;;;;;;5049042;28;20029;-78
2023/06/14 07:11:50;;;;;;;3.13;1.70;;;22.50;39.80;;;;;;5065052;28;20017;-78
2023/06/14 07:14:16;;;;;;;1.85;1.50;;;22.50;39.70;;;;;;5050831;28;20025;-78
2023/06/14 07:16:42;;;;;;;1.88;1.38;;;22.50;40.40;;;;;;5050927;28;20028;-78
2023/06/14 07:19:10;;;;;;;2.13;1.58;;;22.50;39.80;;;;;;5049368;28;20064;-78
2023/06/14 07:21:37;;;;;;;1.70;1.50;;;22.50;39.80;;;;;;5050949;28;20076;-77
2023/06/14 07:24:06;;;;;;;1.70;1.52;;;22.50;39.80;;;;;;5050321;28;20397;-78
2023/06/14 07:26:32;;;;;;;1.60;1.48;;;22.60;39.80;;;;;;5078443;28;20108;-78
2023/06/14 07:29:01;;;;;;;2.70;1.80;;;22.60;39.70;;;;;;5065771;28;20488;-78
2023/06/14 07:31:27;;;;;;;2.10;1.40;;;22.60;39.70;;;;;;5057410;28;20497;-78
2023/06/14 07:33:55;;;;;;;2.67;1.63;;;22.70;39.70;;;;;;5034277;28;20025;-76
2023/06/14 07:36:22;;;;;;;1.67;1.48;;;22.70;39.70;;;;;;5037624;28;20025;-76
2023/06/14 07:38:48;;;;;;;2.67;1.35;;;22.80;39.70;;;;;;5050831;28;20036;-76
2023/06/14 07:41:13;;;;;;;2.25;1.45;;;22.80;39.70;;;;;;5033773;28;20028;-76
2023/06/14 07:43:39;;;;;;;2.53;1.67;;;22.90;39.60;;;;;;5050693;28;20265;-77
2023/06/14 07:46:05;;;;;;;2.80;1.50;;;22.90;39.60;;;;;;5038036;28;20082;-77
2023/06/14 07:48:31;;;;;;;1.90;1.33;;;23.00;39.50;;;;;;5086125;28;20051;-77
2023/06/14 07:50:57;;;;;;;2.10;1.40;;;23.00;39.50;;;;;;5088742;28;20040;-78
2023/06/14 07:53:23;;;;;;;1.60;1.42;;;23.10;39.40;;;;;;5046830;28;20037;-76
2023/06/14 07:55:48;;;;;;;1.48;1.30;;;23.10;39.40;;;;;;5056497;28;20036;-76
2023/06/14 07:58:15;;;;;;;1.50;1.40;;;23.20;39.40;;;;;;5050861;28;20032;-76
2023/06/14 08:00:40;;;;;;;1.90;1.38;;;23.30;39.30;;;;;;5066958;28;20033;-75
2023/06/14 08:03:06;;;;;;;2.15;1.40;;;23.30;39.30;;;;;;5050152;28;20033;-76
2023/06/14 08:05:32;;;;;;;2.22;1.52;;;23.40;39.40;;;;;;5050568;28;20454;-77
2023/06/14 08:07:58;;;;;;;1.88;1.42;;;23.50;39.20;;;;;;5066450;28;20077;-76
2023/06/14 08:10:24;;;;;;;1.75;1.60;;;23.50;39.10;;;;;;5050346;28;20114;-76
2023/06/14 08:12:50;;;;;;;2.13;1.30;;;23.60;39.10;;;;;;5032042;28;20471;-76
2023/06/14 08:15:17;;;;;;;1.75;1.30;;;23.70;39.10;;;;;;5050342;28;20033;-76
2023/06/14 08:17:43;;;;;;;2.05;1.35;;;23.80;39.00;;;;;;5051911;28;20047;-76
2023/06/14 08:20:10;;;;;;;1.23;1.13;;;23.80;39.00;;;;;;5081378;28;20038;-76
2023/06/14 08:22:37;;;;;;;1.30;1.20;;;23.90;39.00;;;;;;5046356;28;20083;-77
2023/06/14 08:25:03;;;;;;;1.98;1.30;;;24.00;38.90;;;;;;5049342;28;20029;-79
2023/06/14 08:27:29;;;;;;;1.40;1.27;;;24.00;38.80;;;;;;5042648;28;20033;-77
2023/06/14 08:29:56;;;;;;;1.30;1.17;;;24.10;38.80;;;;;;5049158;28;20040;-76
2023/06/14 08:32:22;;;;;;;1.63;1.30;;;24.20;38.80;;;;;;5061276;28;20313;-76
2023/06/14 08:34:48;;;;;;;1.42;1.30;;;24.30;38.70;;;;;;5049859;28;20025;-76
2023/06/14 08:37:13;;;;;;;1.90;1.27;;;24.30;38.60;;;;;;5049580;28;20040;-76
2023/06/14 08:39:39;;;;;;;1.25;1.13;;;24.40;38.60;;;;;;5039405;28;20376;-76
2023/06/14 08:42:07;;;;;;;1.30;1.20;;;24.50;38.60;;;;;;5045682;28;20025;-76
2023/06/14 08:44:33;;;;;;;1.58;1.15;;;24.60;38.60;;;;;;5048553;28;20036;-76
2023/06/14 08:47:06;;;;;;;1.20;1.10;;;24.60;38.50;;;;;;5028833;28;20052;-76
2023/06/14 08:49:33;;;;;;;1.90;1.40;;;24.70;38.50;;;;;;5030751;28;20029;-76
2023/06/14 08:52:00;;;;;;;1.23;1.08;;;24.80;38.40;;;;;;5048047;28;20473;-76
2023/06/14 08:54:30;;;;;;;2.00;1.40;;;24.90;39.10;;;;;;5080839;28;20025;-76
2023/06/14 08:56:59;;;;;;;1.98;1.10;;;24.90;38.30;;;;;;5049408;28;20033;-75
2023/06/14 08:59:26;;;;;;;1.40;1.00;;;25.00;38.30;;;;;;5082708;28;20093;-75
2023/06/14 09:01:54;;;;;;;1.10;1.00;;;25.10;38.20;;;;;;5048497;28;20021;-74
2023/06/14 09:04:21;;;;;;;1.42;1.25;;;25.20;38.20;;;;;;5048566;28;20025;-75
2023/06/14 09:06:52;;;;;;;1.35;1.00;;;25.30;38.10;;;;;;5049565;28;20041;-76
2023/06/14 09:09:25;;;;;;;2.08;1.02;;;25.30;38.00;;;;;;5016693;28;20033;-76
2023/06/14 09:11:52;;;;;;;1.38;1.15;;;25.40;38.00;;;;;;5049446;28;20033;-75
2023/06/14 09:14:23;;;;;;;1.10;1.00;;;25.50;38.00;;;;;;5065598;28;20035;-76
2023/06/14 09:16:53;;;;;;;1.30;1.20;;;25.60;38.00;;;;;;5048805;28;20027;-75
2023/06/14 09:19:23;;;;;;;1.35;1.20;;;25.70;38.00;;;;;;5027614;28;20041;-75
2023/06/14 09:21:49;;;;;;;1.75;1.20;;;25.80;38.00;;;;;;5050181;28;20071;-75
2023/06/14 09:24:15;;;;;;;1.42;1.15;;;25.80;37.80;;;;;;5032046;28;20029;-75
2023/06/14 09:26:41;;;;;;;1.65;1.10;;;25.90;37.80;;;;;;5050068;28;20041;-75
2023/06/14 09:29:09;;;;;;;1.33;1.13;;;26.00;37.80;;;;;;5082633;28;20041;-75
2023/06/14 09:31:35;;;;;;;1.40;1.20;;;26.10;37.80;;;;;;5048722;28;20025;-75
2023/06/14 09:34:02;;;;;;;1.10;1.00;;;26.20;37.80;;;;;;5044008;28;20040;-75
2023/06/14 09:36:28;;;;;;;1.30;1.00;;;26.30;37.80;;;;;;5049385;28;20033;-75
2023/06/14 09:39:00;;;;;;;1.38;1.20;;;26.30;37.70;;;;;;5026324;28;20041;-76
2023/06/14 09:41:39;;;;;;;1.20;0.98;;;26.40;37.70;;;;;;5046113;28;20064;-75
2023/06/14 09:44:07;;;;;;;1.17;1.05;;;26.50;37.60;;;;;;5048295;28;20036;-76
2023/06/14 09:46:34;;;;;;;1.20;1.10;;;26.60;37.60;;;;;;5063527;28;20061;-73
2023/06/14 09:49:01;;;;;;;1.10;1.00;;;26.60;37.50;;;;;;5081368;28;20033;-73
2023/06/14 09:51:30;;;;;;;1.10;1.00;;;26.70;37.40;;;;;;5025195;28;20044;-75
2023/06/14 09:54:00;;;;;;;0.93;0.93;;;26.80;37.40;;;;;;5042798;28;20037;-76
2023/06/14 09:56:30;;;;;;;1.20;1.00;;;26.90;37.40;;;;;;5048520;28;20037;-75
2023/06/14 09:58:57;;;;;;;1.33;1.13;;;26.90;37.40;;;;;;5045461;28;20159;-75
2023/06/14 10:01:27;;;;;;;1.40;1.02;;;27.00;37.30;;;;;;5064941;28;20021;-74
2023/06/14 10:04:02;;;;;;;2.15;1.20;;;27.10;37.30;;;;;;5048874;28;20078;-75
2023/06/14 10:06:29;;;;;;;1.20;0.98;;;27.20;37.40;;;;;;5045199;28;20033;-75
2023/06/14 10:09:00;;;;;;;1.40;0.90;;;27.30;37.30;;;;;;5050427;28;20052;-74
2023/06/14 10:11:26;;;;;;;1.10;1.00;;;27.40;37.30;;;;;;5051384;28;20025;-72
2023/06/14 10:13:53;;;;;;;1.15;0.95;;;27.40;37.20;;;;;;5052810;28;20044;-74
2023/06/14 10:16:28;;;;;;;1.52;1.33;;;27.50;37.30;;;;;;5046702;28;20037;-73
2023/06/14 10:19:22;;;;;;;1.33;0.93;;;27.50;37.10;;;;;;5035590;28;20120;-74
2023/06/14 10:22:02;;;;;;;1.23;1.10;;;27.60;37.20;;;;;;5053533;28;20049;-74
2023/06/14 10:24:32;;;;;;;1.15;1.00;;;27.80;37.20;;;;;;5053335;28;20035;-74
2023/06/14 10:27:01;;;;;;;1.08;0.98;;;27.80;37.10;;;;;;5050083;28;20045;-74
2023/06/14 10:29:31;;;;;;;1.15;1.05;;;27.90;37.00;;;;;;5045943;28;20024;-73
2023/06/14 10:31:59;;;;;;;1.15;1.08;;;28.00;37.00;;;;;;5053507;28;20043;-73
2023/06/14 10:34:31;;;;;;;1.05;0.95;;;28.00;36.90;;;;;;5058555;28;20378;-74
2023/06/14 10:37:02;;;;;;;1.35;1.20;;;28.10;36.90;;;;;;5052158;28;20040;-76
2023/06/14 10:39:28;;;;;;;2.13;1.00;;;28.20;36.80;;;;;;5055963;28;20021;-77
2023/06/14 10:41:56;;;;;;;1.30;1.05;;;28.20;36.70;;;;;;5063343;28;20040;-78
2023/06/14 10:44:21;;;;;;;0.70;0.70;;;28.30;36.70;;;;;;5065769;28;20064;-78
2023/06/14 10:46:54;;;;;;;0.88;0.88;;;28.30;36.60;;;;;;5055697;28;20053;-78
2023/06/14 10:49:43;;;;;;;1.10;0.93;;;28.40;36.60;;;;;;5047784;28;20037;-75
2023/06/14 10:52:18;;;;;;;2.13;1.05;;;28.50;36.60;;;;;;5044050;28;20037;-76
2023/06/14 10:55:14;;;;;;;1.60;0.88;;;28.50;36.40;;;;;;5030377;28;20383;-78
2023/06/14 10:57:43;;;;;;;2.65;1.10;;;28.60;36.50;;;;;;5051499;28;20056;-74
2023/06/14 11:00:13;;;;;;;1.15;1.05;;;28.70;36.40;;;;;;5051792;28;20032;-76
2023/06/14 11:02:50;;;;;;;1.58;1.08;;;28.70;36.30;;;;;;5051533;28;20029;-74
2023/06/14 11:05:23;;;;;;;1.02;0.93;;;28.70;36.30;;;;;;5045537;28;20104;-73
2023/06/14 11:08:08;;;;;;;1.20;1.02;;;28.70;36.20;;;;;;5051143;28;20037;-74
2023/06/14 11:10:40;;;;;;;1.40;0.90;;;28.80;36.30;;;;;;5047527;28;20056;-74
2023/06/14 11:13:07;;;;;;;2.58;1.10;;;28.80;36.30;;;;;;5084614;28;20029;-74
2023/06/14 11:15:35;;;;;;;1.35;0.98;;;28.90;36.30;;;;;;5032917;28;20029;-75
2023/06/14 11:18:06;;;;;;;1.30;1.20;;;28.90;36.30;;;;;;5051408;28;20057;-73
2023/06/14 11:20:34;;;;;;;1.35;1.10;;;28.90;36.30;;;;;;5083504;28;20083;-74
2023/06/14 11:23:00;;;;;;;1.10;1.00;;;28.90;36.30;;;;;;5052004;28;20474;-77
2023/06/14 11:25:28;;;;;;;1.13;1.00;;;29.00;36.40;;;;;;5051994;28;20025;-77
2023/06/14 11:27:55;;;;;;;1.58;1.08;;;28.90;36.30;;;;;;5050978;28;20051;-77
2023/06/14 11:30:21;;;;;;;0.77;0.77;;;29.00;36.40;;;;;;5067433;28;20033;-76
2023/06/14 11:32:51;;;;;;;1.40;1.10;;;29.00;36.30;;;;;;5079384;28;20078;-77
2023/06/14 11:35:23;;;;;;;1.17;1.08;;;29.00;36.20;;;;;;5052493;28;20033;-76
2023/06/14 11:37:52;;;;;;;0.80;0.80;;;29.00;36.20;;;;;;5049942;28;20044;-77
2023/06/14 11:40:18;;;;;;;1.38;1.00;;;29.00;36.20;;;;;;5051493;28;20025;-77
2023/06/14 11:42:44;;;;;;;1.48;1.20;;;29.00;36.20;;;;;;5030852;28;20495;-75
2023/06/14 11:45:11;;;;;;;2.40;1.23;;;29.00;36.30;;;;;;5041823;28;20477;-77
2023/06/14 11:47:39;;;;;;;0.80;0.80;;;29.00;36.40;;;;;;5056334;28;20363;-80
2023/06/14 11:50:08;;;;;;;1.30;1.00;;;29.00;36.30;;;;;;5021332;28;20500;-79
2023/06/14 11:52:34;;;;;;;1.40;1.00;;;29.10;36.50;;;;;;5047663;28;20029;-79
2023/06/14 11:55:04;;;;;;;1.10;1.00;;;29.00;36.40;;;;;;5041765;28;20035;-79
2023/06/14 11:57:30;;;;;;;1.17;1.00;;;29.00;36.40;;;;;;5045341;28;20028;-80
2023/06/14 11:59:56;;;;;;;1.33;1.10;;;29.00;36.40;;;;;;5047433;28;20458;-78
2023/06/14 12:02:27;;;;;;;1.42;1.00;;;29.00;36.50;;;;;;5049559;28;20025;-77
2023/06/14 12:04:54;;;;;;;1.25;1.15;;;29.00;36.50;;;;;;5051306;28;20036;-78
2023/06/14 12:07:22;;;;;;;1.35;0.90;;;29.00;36.50;;;;;;5050291;28;20039;-80
2023/06/14 12:09:53;;;;;;;1.65;1.20;;;29.00;36.40;;;;;;5046823;28;20036;-78
2023/06/14 12:12:22;;;;;;;1.02;0.93;;;28.90;36.40;;;;;;5049626;28;20024;-78
2023/06/14 12:14:48;;;;;;;0.95;0.95;;;28.90;36.30;;;;;;5050318;28;20025;-79
2023/06/14 12:17:17;;;;;;;1.20;1.05;;;28.90;36.30;;;;;;5051001;28;20033;-77
2023/06/14 12:19:44;;;;;;;1.92;1.15;;;28.90;36.30;;;;;;5045686;28;20466;-77
2023/06/14 12:22:11;;;;;;;1.20;1.10;;;28.90;36.90;;;;;;5044794;28;20029;-77
2023/06/14 12:24:37;;;;;;;1.10;1.00;;;28.90;36.20;;;;;;5049656;28;20070;-77
2023/06/14 12:27:04;;;;;;;1.20;1.10;;;28.90;36.20;;;;;;5077190;28;20032;-77
2023/06/14 12:29:30;;;;;;;1.10;0.82;;;28.90;36.30;;;;;;5050082;28;20047;-78
2023/06/14 12:31:57;;;;;;;0.82;0.82;;;28.90;36.30;;;;;;5048512;28;20497;-77
2023/06/14 12:34:27;;;;;;;0.90;0.90;;;28.80;36.30;;;;;;5026931;28;20107;-76
2023/06/14 12:36:54;;;;;;;2.03;0.88;;;28.80;36.20;;;;;;5082482;28;20032;-77
2023/06/14 12:39:20;;;;;;;0.90;0.80;;;28.80;36.20;;;;;;5048957;28;20107;-78
2023/06/14 12:41:46;;;;;;;1.20;1.10;;;28.80;36.30;;;;;;5046969;28;20052;-76
2023/06/14 12:44:13;;;;;;;1.17;0.90;;;28.80;36.20;;;;;;5050262;28;20017;-78
2023/06/14 12:46:39;;;;;;;1.38;1.10;;;28.80;36.20;;;;;;5048309;28;20369;-77
2023/06/14 12:49:10;;;;;;;1.30;0.90;;;28.70;36.20;;;;;;5048801;28;20114;-78
2023/06/14 12:51:36;;;;;;;1.10;0.95;;;28.80;36.30;;;;;;5047534;28;20492;-79
2023/06/14 12:54:03;;;;;;;1.17;1.00;;;28.80;36.20;;;;;;5022217;28;20025;-77